Archival Weather

Wadi Al Dawasir

Wadi Al Dawasir, Saudi Arabia (OEWD)

Report from: Sunday, October 1, 2023 12:00 PM +03
Current time: Sunday, February 25, 2024 11:37 PM +03

Current weather – Weather history – Daily summaries
Weather forecast

Temperature39.0°C (102.2°F)
Heat index35.7°C (96.3°F)
Dew point-5.0°C (23.0°F)
Winds 4 kts (2.1 m/s, 4.6 mph) South-Southeast (150°)
Clouds Sky clear
Altimeter29.91 in.Hg (1013 mB)
Relative humidity6 %
Density altitude2,785 ft. (849 m)
Remarks Ceiling and visibility OK
Flight conditions Visual Meteorological Conditions
Raw dataOEWD 010900Z 15004KT CAVOK 39/M05 Q1013
An error has occurred. This application may no longer respond until reloaded. Reload 🗙